Terminal Aerodrome Forecast
Issued by NWS

Home | Current Version | Previous Version | Text Only | Print | Product List | Glossary On
Versions: 1 2 3 4 5 6 7 8 9 10 11 12
854
FTUS43 KJKL 191120
TAFSME
TAF
KSME 191120Z 1912/2012 31012G21KT P6SM OVC030
     FM191600 32011G17KT P6SM BKN035
     FM192100 35007KT P6SM SCT050 SCT250=

USA.gov is the U.S. government's official web portal to all federal, state and local government web resources and services.